createdAt,value
2019-01-11T00:00:01.338Z,11.90
2019-01-11T00:02:30.456Z,13.47
2019-01-11T00:04:59.553Z,15.47
2019-01-11T00:07:30.465Z,12.57
2019-01-11T00:09:59.565Z,17.40
2019-01-11T00:12:28.697Z,14.10
2019-01-11T00:14:59.043Z,11.03
2019-01-11T00:17:29.275Z,16.50
2019-01-11T00:20:03.697Z,14.80
2019-01-11T00:22:33.093Z,19.13
2019-01-11T00:25:02.177Z,19.10
2019-01-11T00:27:31.279Z,16.50
2019-01-11T00:30:03.019Z,21.70
2019-01-11T00:32:32.138Z,22.00
2019-01-11T00:35:01.258Z,20.73
2019-01-11T00:37:30.351Z,19.97
2019-01-11T00:40:00.727Z,16.03
2019-01-11T00:42:34.645Z,12.30
2019-01-11T00:45:05.608Z,15.53
2019-01-11T00:47:34.968Z,16.47
2019-01-11T00:50:06.564Z,14.60
2019-01-11T00:52:35.667Z,16.00
2019-01-11T00:55:07.086Z,14.03
2019-01-11T00:57:37.688Z,11.63
2019-01-11T01:00:12.071Z,14.73
2019-01-11T01:02:44.374Z,12.90
2019-01-11T01:05:13.668Z,16.73
2019-01-11T01:07:47.573Z,13.87
2019-01-11T01:10:21.021Z,15.83
2019-01-11T01:12:50.127Z,17.70
2019-01-11T01:15:21.628Z,15.40
2019-01-11T01:17:50.670Z,15.70
2019-01-11T01:20:19.862Z,14.37
2019-01-11T01:22:50.035Z,16.67
2019-01-11T01:25:19.323Z,15.67
2019-01-11T01:27:48.459Z,15.80
2019-01-11T01:30:18.537Z,17.03
2019-01-11T01:32:48.014Z,14.43
2019-01-11T01:35:19.662Z,17.60
2019-01-11T01:37:50.891Z,13.33
2019-01-11T01:40:19.756Z,15.43
2019-01-11T01:42:50.440Z,15.10
2019-01-11T01:45:21.846Z,12.20
2019-01-11T01:47:50.959Z,16.40
2019-01-11T01:50:23.776Z,15.30
2019-01-11T01:53:05.119Z,17.20
2019-01-11T01:55:34.208Z,12.47
2019-01-11T01:58:03.495Z,17.40
2019-01-11T02:00:33.703Z,14.63
2019-01-11T02:03:03.083Z,9.70
2019-01-11T02:05:35.148Z,10.83
2019-01-11T02:08:07.339Z,10.13
2019-01-11T02:10:36.429Z,17.00
2019-01-11T02:13:05.754Z,12.37
2019-01-11T02:15:36.715Z,9.50
2019-01-11T02:18:05.940Z,12.30
2019-01-11T02:20:36.138Z,15.07
2019-01-11T02:23:06.148Z,13.13
2019-01-11T02:25:36.368Z,15.17
2019-01-11T02:28:05.488Z,16.77
2019-01-11T02:30:36.684Z,12.00
2019-01-11T02:33:14.997Z,14.97
2019-01-11T02:35:44.092Z,13.97
2019-01-11T02:38:13.403Z,17.23
2019-01-11T02:40:44.235Z,18.37
2019-01-11T02:43:13.349Z,12.73
2019-01-11T02:45:42.443Z,12.17
2019-01-11T02:48:15.371Z,13.53
2019-01-11T02:50:44.510Z,16.20
2019-01-11T02:53:15.000Z,15.60
2019-01-11T02:55:44.050Z,14.80
2019-01-11T02:58:15.674Z,11.60
2019-01-11T03:00:45.183Z,15.07
2019-01-11T03:03:14.317Z,14.00
2019-01-11T03:05:43.534Z,11.37
2019-01-11T03:08:15.641Z,9.90
2019-01-11T03:10:48.491Z,12.20
2019-01-11T03:13:17.766Z,9.50
2019-01-11T03:15:52.685Z,15.23
2019-01-11T03:18:23.491Z,12.80
2019-01-11T03:20:58.402Z,9.63
2019-01-11T03:23:32.347Z,12.10
2019-01-11T03:26:01.693Z,12.30
2019-01-11T03:28:33.755Z,12.40
2019-01-11T03:31:12.702Z,8.77
2019-01-11T03:33:43.403Z,10.57
2019-01-11T03:36:12.571Z,13.40
2019-01-11T03:38:41.889Z,11.50
2019-01-11T03:41:11.100Z,11.10
2019-01-11T03:43:42.506Z,10.33
2019-01-11T03:46:14.363Z,15.47
2019-01-11T03:48:46.058Z,10.13
2019-01-11T03:51:17.033Z,10.47
2019-01-11T03:53:47.438Z,11.30
2019-01-11T03:56:18.590Z,9.60
2019-01-11T03:58:49.444Z,10.10
2019-01-11T04:01:20.539Z,10.37
2019-01-11T04:03:51.460Z,12.17
2019-01-11T04:06:20.572Z,8.93
2019-01-11T04:08:56.097Z,10.53
2019-01-11T04:11:36.436Z,9.07
2019-01-11T04:14:05.926Z,9.73
2019-01-11T04:16:35.036Z,8.30
2019-01-11T04:19:10.966Z,6.10
2019-01-11T04:21:42.916Z,12.80
2019-01-11T04:24:12.001Z,9.13
2019-01-11T04:26:42.321Z,8.43
2019-01-11T04:29:18.270Z,9.10
2019-01-11T04:31:49.890Z,10.50
2019-01-11T04:34:19.425Z,8.87
2019-01-11T04:36:48.535Z,14.03
2019-01-11T04:39:19.501Z,7.23
2019-01-11T04:41:49.716Z,10.10
2019-01-11T04:44:27.192Z,15.63
2019-01-11T04:46:57.728Z,10.00
2019-01-11T04:49:28.782Z,11.73
2019-01-11T04:52:03.611Z,7.47
2019-01-11T04:54:32.455Z,7.10
2019-01-11T04:57:01.544Z,10.60
2019-01-11T04:59:30.651Z,9.80
2019-01-11T05:01:59.753Z,7.63
2019-01-11T05:04:30.163Z,6.57
2019-01-11T05:07:00.773Z,7.60
2019-01-11T05:09:29.865Z,9.50
2019-01-11T05:11:59.108Z,10.57
2019-01-11T05:14:29.832Z,9.50
2019-01-11T05:16:58.957Z,7.10
2019-01-11T05:19:28.067Z,10.40
2019-01-11T05:21:57.186Z,8.33
2019-01-11T05:24:29.288Z,9.40
2019-01-11T05:26:58.765Z,10.60
2019-01-11T05:29:30.380Z,9.67
2019-01-11T05:31:59.920Z,9.80
2019-01-11T05:34:29.622Z,10.20
2019-01-11T05:37:02.240Z,11.30
2019-01-11T05:39:31.822Z,8.77
2019-01-11T05:42:02.533Z,8.40
2019-01-11T05:44:34.646Z,8.00
2019-01-11T05:47:04.275Z,6.47
2019-01-11T05:49:34.725Z,8.63
2019-01-11T05:52:04.211Z,7.60
2019-01-11T05:54:33.427Z,9.10
2019-01-11T05:57:03.755Z,8.97
2019-01-11T05:59:38.119Z,8.37
2019-01-11T06:02:07.624Z,8.83
2019-01-11T06:04:45.381Z,8.87
2019-01-11T06:07:38.357Z,11.67
2019-01-11T06:10:10.384Z,10.53
2019-01-11T06:12:39.474Z,17.20
2019-01-11T06:15:08.769Z,8.67
2019-01-11T06:17:40.483Z,11.37
2019-01-11T06:20:15.114Z,13.23
2019-01-11T06:22:53.362Z,9.63
2019-01-11T06:25:23.431Z,8.80
2019-01-11T06:27:52.874Z,8.40
2019-01-11T06:30:23.342Z,6.93
2019-01-11T06:32:54.879Z,7.57
2019-01-11T06:35:25.566Z,7.87
2019-01-11T06:38:04.044Z,9.97
2019-01-11T06:40:33.149Z,15.50
2019-01-11T06:43:03.650Z,8.07
2019-01-11T06:45:33.235Z,6.20
2019-01-11T06:48:02.586Z,6.30
2019-01-11T06:50:38.685Z,7.73
2019-01-11T06:53:10.498Z,9.17
2019-01-11T06:55:41.522Z,10.63
2019-01-11T06:58:13.545Z,8.07
2019-01-11T07:00:45.711Z,10.57
2019-01-11T07:03:15.102Z,8.20
2019-01-11T07:05:45.347Z,8.97
2019-01-11T07:08:16.930Z,6.57
2019-01-11T07:10:47.419Z,8.80
2019-01-11T07:13:17.529Z,6.60
2019-01-11T07:15:49.999Z,11.20
2019-01-11T07:18:19.150Z,10.53
2019-01-11T07:20:48.309Z,9.20
2019-01-11T07:23:19.138Z,8.67
2019-01-11T07:25:53.605Z,9.27
2019-01-11T07:28:24.346Z,11.77
2019-01-11T07:31:06.705Z,9.60
2019-01-11T07:33:37.861Z,10.53
2019-01-11T07:36:25.885Z,19.87
2019-01-11T07:38:56.520Z,6.70
2019-01-11T07:41:40.693Z,11.07
2019-01-11T07:44:10.090Z,11.20
2019-01-11T07:46:40.828Z,8.83
2019-01-11T07:49:11.734Z,10.93
2019-01-11T07:51:47.490Z,9.03
2019-01-11T07:54:19.789Z,9.07
2019-01-11T07:56:50.106Z,13.90
2019-01-11T07:59:22.566Z,16.13
2019-01-11T08:01:52.080Z,12.07
2019-01-11T08:04:21.438Z,13.53
2019-01-11T08:06:51.059Z,15.97
2019-01-11T08:09:24.416Z,12.40
2019-01-11T08:11:54.781Z,11.70
2019-01-11T08:14:24.033Z,16.13
2019-01-11T08:16:56.099Z,15.40
2019-01-11T08:19:25.248Z,11.13
2019-01-11T08:21:54.601Z,15.40
2019-01-11T08:24:25.349Z,14.10
2019-01-11T08:27:11.684Z,11.03
2019-01-11T08:29:43.596Z,9.97
2019-01-11T08:32:12.761Z,8.60
2019-01-11T08:34:43.658Z,13.90
2019-01-11T08:37:16.075Z,9.43
2019-01-11T08:39:45.485Z,11.20
2019-01-11T08:42:20.557Z,11.20
2019-01-11T08:44:50.156Z,13.97
2019-01-11T08:47:19.265Z,12.03
2019-01-11T08:49:48.511Z,11.17
2019-01-11T08:52:17.640Z,13.10
2019-01-11T08:54:46.993Z,16.47
2019-01-11T08:57:17.656Z,15.57
2019-01-11T08:59:48.244Z,10.97
2019-01-11T09:02:20.700Z,11.50
2019-01-11T09:04:50.053Z,9.90
2019-01-11T09:07:20.365Z,8.77
2019-01-11T09:09:49.834Z,12.67
2019-01-11T09:12:21.007Z,10.30
2019-01-11T09:14:55.923Z,11.03
2019-01-11T09:17:28.174Z,11.80
2019-01-11T09:19:57.342Z,15.67
2019-01-11T09:22:26.494Z,13.23
2019-01-11T09:24:56.971Z,13.47
2019-01-11T09:27:26.073Z,9.43
2019-01-11T09:29:58.243Z,11.97
2019-01-11T09:32:33.543Z,14.90
2019-01-11T09:35:03.044Z,12.37
2019-01-11T09:37:35.996Z,11.87
2019-01-11T09:40:16.198Z,15.30
2019-01-11T09:42:52.008Z,11.47
2019-01-11T09:45:21.918Z,9.40
2019-01-11T09:47:52.170Z,11.87
2019-01-11T09:50:22.839Z,8.33
2019-01-11T09:52:51.923Z,11.33
2019-01-11T09:55:21.304Z,11.20
2019-01-11T09:57:52.627Z,12.40
2019-01-11T10:00:24.675Z,12.50
2019-01-11T10:03:05.061Z,15.80
2019-01-11T10:05:51.340Z,15.30
2019-01-11T10:08:27.230Z,15.20
2019-01-11T10:10:57.442Z,14.87
2019-01-11T10:13:28.201Z,17.97
2019-01-11T10:16:00.592Z,10.17
2019-01-11T10:18:29.871Z,11.07
2019-01-11T10:20:58.989Z,9.63
2019-01-11T10:23:28.449Z,10.90
2019-01-11T10:25:59.729Z,14.20
2019-01-11T10:28:28.882Z,14.10
2019-01-11T10:31:00.774Z,14.40
2019-01-11T10:33:36.329Z,12.40
2019-01-11T10:36:04.854Z,15.60
2019-01-11T10:38:39.198Z,13.40
2019-01-11T10:41:08.458Z,12.60
2019-01-11T10:43:38.081Z,13.70
2019-01-11T10:46:20.817Z,13.03
2019-01-11T10:48:49.915Z,10.20
2019-01-11T10:51:20.538Z,8.10
2019-01-11T10:53:50.842Z,11.30
2019-01-11T10:56:20.138Z,11.83
2019-01-11T10:58:54.712Z,11.83
2019-01-11T11:01:24.069Z,10.60
2019-01-11T11:03:55.598Z,11.90
2019-01-11T11:06:31.458Z,13.23
2019-01-11T11:09:04.790Z,10.47
2019-01-11T11:11:46.034Z,8.47
2019-01-11T11:14:15.128Z,10.00
2019-01-11T11:16:44.397Z,9.83
2019-01-11T11:19:14.810Z,10.77
2019-01-11T11:21:47.750Z,10.70
2019-01-11T11:24:17.464Z,14.30
2019-01-11T11:26:50.362Z,11.80
2019-01-11T11:29:19.540Z,9.37
2019-01-11T11:31:51.655Z,10.17
2019-01-11T11:34:27.890Z,10.10
2019-01-11T11:37:05.691Z,12.90
2019-01-11T11:39:34.953Z,10.13
2019-01-11T11:42:04.188Z,14.93
2019-01-11T11:44:34.766Z,10.17
2019-01-11T11:47:05.835Z,13.53
2019-01-11T11:49:35.027Z,9.60
2019-01-11T11:52:05.650Z,11.33
2019-01-11T11:54:43.177Z,8.67
2019-01-11T11:57:19.656Z,9.27
2019-01-11T11:59:50.257Z,10.10
2019-01-11T12:02:19.491Z,15.23
2019-01-11T12:04:48.566Z,12.07
2019-01-11T12:07:17.682Z,10.13
2019-01-11T12:09:50.828Z,10.27
2019-01-11T12:12:25.573Z,10.27
2019-01-11T12:14:55.163Z,14.00
2019-01-11T12:17:26.515Z,8.77
2019-01-11T12:19:57.198Z,12.17
2019-01-11T12:22:27.342Z,10.43
2019-01-11T12:24:59.443Z,14.67
2019-01-11T12:27:28.826Z,10.40
2019-01-11T12:30:01.559Z,12.43
2019-01-11T12:32:33.484Z,6.97
2019-01-11T12:35:02.993Z,10.37
2019-01-11T12:37:38.233Z,14.07
2019-01-11T12:40:08.584Z,14.57
2019-01-11T12:42:41.485Z,9.63
2019-01-11T12:45:14.481Z,10.07
2019-01-11T12:47:44.427Z,10.47
2019-01-11T12:50:26.576Z,10.23
2019-01-11T12:52:57.057Z,13.80
2019-01-11T12:55:27.701Z,13.93
2019-01-11T12:57:56.869Z,12.00
2019-01-11T13:00:26.333Z,12.17
2019-01-11T13:03:01.667Z,10.30
2019-01-11T13:05:36.295Z,13.07
2019-01-11T13:08:06.426Z,13.40
2019-01-11T13:10:39.866Z,10.23
2019-01-11T13:13:11.092Z,11.60
2019-01-11T13:15:43.948Z,11.97
2019-01-11T13:18:16.591Z,11.10
2019-01-11T13:20:47.040Z,12.27
2019-01-11T13:23:19.951Z,7.93
2019-01-11T13:25:50.859Z,10.00
2019-01-11T13:28:26.604Z,9.07
2019-01-11T13:30:55.904Z,9.90
2019-01-11T13:33:45.652Z,9.93
2019-01-11T13:36:24.294Z,9.70
2019-01-11T13:38:56.657Z,7.80
2019-01-11T13:41:27.387Z,12.13
2019-01-11T13:43:59.533Z,9.90
2019-01-11T13:46:31.549Z,11.70
2019-01-11T13:49:00.965Z,12.20
2019-01-11T13:51:30.240Z,8.50
2019-01-11T13:54:03.614Z,9.73
2019-01-11T13:56:40.856Z,7.27
2019-01-11T13:59:11.312Z,11.60
2019-01-11T14:01:42.118Z,11.97
2019-01-11T14:04:11.790Z,10.47
2019-01-11T14:06:46.251Z,8.97
2019-01-11T14:09:20.179Z,17.10
2019-01-11T14:11:51.958Z,13.40
2019-01-11T14:14:22.478Z,18.87
2019-01-11T14:16:55.000Z,16.23
2019-01-11T14:19:25.632Z,9.60
2019-01-11T14:21:59.949Z,11.47
2019-01-11T14:24:30.430Z,16.70
2019-01-11T14:27:00.613Z,10.33
2019-01-11T14:29:31.381Z,9.53
2019-01-11T14:32:00.829Z,8.67
2019-01-11T14:34:31.989Z,14.83
2019-01-11T14:37:09.561Z,9.93
2019-01-11T14:39:39.024Z,12.77
2019-01-11T14:42:12.118Z,8.23
2019-01-11T14:44:43.528Z,12.77
2019-01-11T14:47:12.667Z,9.97
2019-01-11T14:49:43.059Z,13.10
2019-01-11T14:52:13.351Z,13.37
2019-01-11T14:54:42.822Z,11.37
2019-01-11T14:57:13.420Z,9.90
2019-01-11T14:59:44.972Z,7.90
2019-01-11T15:02:14.187Z,9.40
2019-01-11T15:04:47.473Z,8.60
2019-01-11T15:07:19.935Z,14.43
2019-01-11T15:09:49.089Z,11.10
2019-01-11T15:12:18.227Z,9.37
2019-01-11T15:14:47.357Z,15.23
2019-01-11T15:17:17.575Z,11.17
2019-01-11T15:19:48.618Z,8.03
2019-01-11T15:22:19.000Z,12.30
2019-01-11T15:24:50.662Z,10.33
2019-01-11T15:27:23.953Z,10.53
2019-01-11T15:29:53.709Z,9.50
2019-01-11T15:32:27.796Z,8.27
2019-01-11T15:35:00.813Z,10.30
2019-01-11T15:37:30.209Z,13.23
2019-01-11T15:40:03.593Z,12.90
2019-01-11T15:42:33.403Z,13.67
2019-01-11T15:45:04.234Z,10.37
2019-01-11T15:47:33.350Z,11.00
2019-01-11T15:50:04.005Z,11.17
2019-01-11T15:52:33.684Z,8.30
2019-01-11T15:55:06.366Z,8.80
2019-01-11T15:57:43.290Z,10.70
2019-01-11T16:00:24.350Z,10.83
2019-01-11T16:03:00.994Z,8.50
2019-01-11T16:05:32.730Z,11.43
2019-01-11T16:08:01.819Z,14.63
2019-01-11T16:10:34.687Z,10.40
2019-01-11T16:13:19.675Z,17.07
2019-01-11T16:16:16.732Z,8.90
2019-01-11T16:18:45.951Z,11.07
2019-01-11T16:21:15.426Z,12.97
2019-01-11T16:23:46.389Z,13.73
2019-01-11T16:26:15.530Z,11.57
2019-01-11T16:28:52.109Z,11.90
2019-01-11T16:31:21.448Z,8.37
2019-01-11T16:33:53.494Z,11.07
2019-01-11T16:36:25.617Z,10.53
2019-01-11T16:38:56.563Z,7.10
2019-01-11T16:41:27.028Z,9.00
2019-01-11T16:43:56.560Z,10.50
2019-01-11T16:46:26.785Z,7.87
2019-01-11T16:48:55.957Z,9.70
2019-01-11T16:51:28.581Z,8.00
2019-01-11T16:53:57.716Z,7.17
2019-01-11T16:56:31.201Z,12.53
2019-01-11T16:59:02.142Z,10.40
2019-01-11T17:01:32.272Z,12.63
2019-01-11T17:04:05.052Z,8.70
2019-01-11T17:06:35.503Z,10.43
2019-01-11T17:09:07.136Z,7.67
2019-01-11T17:11:36.234Z,12.23
2019-01-11T17:14:06.320Z,10.17
2019-01-11T17:16:35.620Z,8.50
2019-01-11T17:19:08.312Z,12.93
2019-01-11T17:21:38.635Z,9.07
2019-01-11T17:24:09.486Z,7.90
2019-01-11T17:26:38.599Z,12.90
2019-01-11T17:29:07.779Z,8.67
2019-01-11T17:31:37.875Z,9.70
2019-01-11T17:34:08.411Z,7.83
2019-01-11T17:36:46.517Z,8.37
2019-01-11T17:39:18.887Z,12.70
2019-01-11T17:41:49.538Z,8.60
2019-01-11T17:44:18.721Z,12.93
2019-01-11T17:46:52.899Z,10.93
2019-01-11T17:49:22.031Z,9.67
2019-01-11T17:51:51.165Z,7.50
2019-01-11T17:54:21.428Z,11.67
2019-01-11T17:56:51.769Z,10.03
2019-01-11T17:59:25.616Z,6.67
2019-01-11T18:02:09.375Z,10.43
2019-01-11T18:04:38.496Z,8.77
2019-01-11T18:07:08.472Z,11.60
2019-01-11T18:09:37.591Z,9.27
2019-01-11T18:12:06.722Z,11.90
2019-01-11T18:14:35.882Z,10.83
2019-01-11T18:17:05.092Z,8.10
2019-01-11T18:19:34.260Z,7.57
2019-01-11T18:22:03.390Z,9.23
2019-01-11T18:24:35.015Z,10.00
2019-01-11T18:27:04.174Z,11.67
2019-01-11T18:29:33.289Z,9.97
2019-01-11T18:32:03.615Z,11.70
2019-01-11T18:34:35.393Z,10.03
2019-01-11T18:37:11.970Z,10.40
2019-01-11T18:39:44.413Z,10.33
2019-01-11T18:42:14.582Z,14.33
2019-01-11T18:44:43.685Z,10.97
2019-01-11T18:50:13.933Z,10.53
2019-01-11T18:52:43.076Z,11.70
2019-01-11T18:55:12.197Z,8.43
2019-01-11T18:57:46.455Z,8.13
2019-01-11T19:00:23.757Z,12.87
2019-01-11T19:02:53.043Z,11.30
2019-01-11T19:05:22.584Z,11.23
2019-01-11T19:07:58.767Z,7.87
2019-01-11T19:10:27.991Z,11.87
2019-01-11T19:12:57.377Z,13.97
2019-01-11T19:15:28.606Z,11.40
2019-01-11T19:17:59.521Z,14.43
2019-01-11T19:20:31.339Z,10.53
2019-01-11T19:23:06.030Z,8.97
2019-01-11T19:25:35.667Z,9.37
2019-01-11T19:28:05.997Z,10.00
2019-01-11T19:30:44.458Z,10.17
2019-01-11T19:33:13.633Z,11.10
2019-01-11T19:35:44.736Z,14.10
2019-01-11T19:38:15.324Z,11.47
2019-01-11T19:40:46.754Z,11.20
2019-01-11T19:43:17.279Z,15.10
2019-01-11T19:45:48.263Z,10.47
2019-01-11T19:48:20.970Z,13.20
2019-01-11T19:50:52.129Z,10.00
2019-01-11T19:53:27.231Z,9.30
2019-01-11T19:55:58.546Z,15.83
2019-01-11T19:58:24.728Z,14.00
2019-01-11T20:00:56.126Z,15.37
2019-01-11T20:03:26.134Z,15.07
2019-01-11T20:05:55.390Z,14.87
2019-01-11T20:08:24.527Z,13.47
2019-01-11T20:10:54.856Z,13.90
2019-01-11T20:13:27.612Z,13.03
2019-01-11T20:15:56.972Z,14.23
2019-01-11T20:18:29.684Z,11.30
2019-01-11T20:20:58.935Z,11.20
2019-01-11T20:23:34.482Z,14.20
2019-01-11T20:26:00.336Z,17.33
2019-01-11T20:28:32.136Z,14.60
2019-01-11T20:31:02.664Z,12.60
2019-01-11T20:33:32.110Z,15.13
2019-01-11T20:36:01.313Z,18.10
2019-01-11T20:38:30.461Z,11.37
2019-01-11T20:40:59.597Z,12.47
2019-01-11T20:43:28.725Z,12.10
2019-01-11T20:46:03.205Z,11.23
2019-01-11T20:48:32.335Z,8.43
2019-01-11T20:51:01.525Z,11.73
2019-01-11T20:53:30.739Z,13.27
2019-01-11T20:56:03.488Z,13.57
2019-01-11T20:58:32.629Z,14.57
2019-01-11T21:01:02.624Z,19.93
2019-01-11T21:03:31.798Z,12.10
2019-01-11T21:06:00.903Z,9.53
2019-01-11T21:08:31.141Z,11.90
2019-01-11T21:11:04.410Z,9.40
2019-01-11T21:13:37.310Z,10.47
2019-01-11T21:16:07.120Z,10.10
2019-01-11T21:18:36.513Z,12.20
2019-01-11T21:21:09.086Z,7.90
2019-01-11T21:23:38.208Z,8.50
2019-01-11T21:26:11.786Z,7.97
2019-01-11T21:28:46.450Z,8.70
2019-01-11T21:31:15.924Z,5.93
2019-01-11T21:33:49.524Z,6.07
2019-01-11T21:36:20.707Z,10.57
2019-01-11T21:38:49.835Z,5.53
2019-01-11T21:41:18.928Z,8.23
2019-01-11T21:43:48.054Z,6.50
2019-01-11T21:46:19.621Z,6.77
2019-01-11T21:48:49.284Z,5.53
2019-01-11T21:51:18.396Z,5.13
2019-01-11T21:53:55.732Z,6.30
2019-01-11T21:56:22.274Z,4.57
2019-01-11T21:58:54.827Z,3.80
2019-01-11T22:01:30.331Z,5.63
2019-01-11T22:03:59.641Z,6.93
2019-01-11T22:06:34.224Z,6.47
2019-01-11T22:09:04.823Z,3.20
2019-01-11T22:11:35.947Z,5.43
2019-01-11T22:14:05.524Z,5.90
2019-01-11T22:16:35.058Z,5.40
2019-01-11T22:19:04.552Z,4.00
2019-01-11T22:21:33.664Z,9.60
2019-01-11T22:24:03.496Z,5.50
2019-01-11T22:26:33.480Z,4.00
2019-01-11T22:29:08.151Z,3.33
2019-01-11T22:31:42.733Z,4.80
2019-01-11T22:34:17.586Z,2.60
2019-01-11T22:36:46.782Z,5.83
2019-01-11T22:39:16.061Z,5.30
2019-01-11T22:41:45.214Z,4.27
2019-01-11T22:44:14.365Z,5.67
2019-01-11T22:46:43.658Z,3.60
2019-01-11T22:49:12.758Z,5.90
2019-01-11T22:51:41.898Z,3.97
2019-01-11T22:54:13.441Z,4.10
2019-01-11T22:56:42.583Z,3.80
2019-01-11T22:59:13.871Z,4.07
2019-01-11T23:02:05.241Z,9.13
2019-01-11T23:04:43.584Z,4.63
2019-01-11T23:07:28.246Z,5.63
2019-01-11T23:10:32.324Z,7.33
2019-01-11T23:13:06.862Z,4.07
2019-01-11T23:16:01.705Z,4.83
2019-01-11T23:18:34.004Z,5.83
2019-01-11T23:21:09.816Z,6.23
2019-01-11T23:23:43.427Z,3.93
2019-01-11T23:26:14.685Z,4.90
2019-01-11T23:28:47.046Z,7.93
2019-01-11T23:31:16.459Z,4.30
2019-01-11T23:33:50.830Z,6.50
2019-01-11T23:36:19.961Z,5.77
2019-01-11T23:38:49.255Z,7.93
2019-01-11T23:41:31.575Z,3.83
2019-01-11T23:44:00.695Z,5.70
2019-01-11T23:46:29.795Z,3.90
2019-01-11T23:49:00.222Z,5.20
2019-01-11T23:51:31.771Z,4.43
2019-01-11T23:54:00.903Z,8.10
2019-01-11T23:56:30.006Z,4.30
2019-01-11T23:59:00.911Z,6.37
